createdAt,value
2023-05-18T00:01:30.852Z,99967.69
2023-05-18T00:03:58.795Z,99967.16
2023-05-18T00:06:26.129Z,99959.56
2023-05-18T00:08:52.767Z,99961.41
2023-05-18T00:11:19.613Z,99962.19
2023-05-18T00:13:46.271Z,99958.78
2023-05-18T00:16:15.767Z,99967.72
2023-05-18T00:18:42.664Z,99963.59
2023-05-18T00:21:09.470Z,99973.53
2023-05-18T00:23:39.678Z,99961.75
2023-05-18T00:26:06.459Z,99967.38
2023-05-18T00:28:33.088Z,99962.03
2023-05-18T00:31:00.546Z,99961.16
2023-05-18T00:33:27.254Z,99966.59
2023-05-18T00:35:53.940Z,99969.22
2023-05-18T00:38:20.721Z,99971.09
2023-05-18T00:40:47.387Z,99968.63
2023-05-18T00:43:14.091Z,99974.03
2023-05-18T00:45:40.792Z,99970.63
2023-05-18T00:48:07.713Z,99969.91
2023-05-18T00:50:35.164Z,99974.38
2023-05-18T00:53:02.110Z,99976.28
2023-05-18T00:55:29.171Z,99979.03
2023-05-18T00:57:57.536Z,99979.22
2023-05-18T01:00:24.596Z,99973.13
2023-05-18T01:02:52.995Z,99984.47
2023-05-18T01:05:22.341Z,99973.19
2023-05-18T01:07:50.611Z,99980.34
2023-05-18T01:10:19.846Z,99980.34
2023-05-18T01:12:56.645Z,99976.97
2023-05-18T01:15:37.313Z,99985.13
2023-05-18T01:18:07.035Z,99981.97
2023-05-18T01:20:59.856Z,99980.22
2023-05-18T01:23:56.785Z,99985.38
2023-05-18T01:26:37.701Z,99983.81
2023-05-18T01:29:09.189Z,99989.16
2023-05-18T01:31:36.224Z,99995.34
2023-05-18T01:34:02.992Z,99990.22
2023-05-18T01:36:29.742Z,99996.28
2023-05-18T01:39:01.495Z,99999.91
2023-05-18T01:41:29.822Z,100002.69
2023-05-18T01:44:17.892Z,99992.28
2023-05-18T01:47:01.241Z,100002.28
2023-05-18T01:49:31.362Z,99996.16
2023-05-18T01:52:03.774Z,99998.00
2023-05-18T01:54:32.341Z,100004.22
2023-05-18T01:57:01.144Z,99996.41
2023-05-18T01:59:28.383Z,99997.38
2023-05-18T02:02:00.130Z,99999.28
2023-05-18T02:04:28.130Z,100006.41
2023-05-18T02:06:55.724Z,100000.44
2023-05-18T02:09:22.981Z,99993.47
2023-05-18T02:11:49.846Z,100001.41
2023-05-18T02:14:16.805Z,99999.69
2023-05-18T02:16:47.347Z,100004.22
2023-05-18T02:19:15.024Z,99999.94
2023-05-18T02:21:43.652Z,99996.53
2023-05-18T02:24:10.725Z,100003.59
2023-05-18T02:26:37.830Z,100002.03
2023-05-18T02:29:11.688Z,100002.13
2023-05-18T02:31:38.906Z,100002.25
2023-05-18T02:34:06.138Z,100000.53
2023-05-18T02:36:40.455Z,99994.44
2023-05-18T02:39:07.790Z,99994.50
2023-05-18T02:41:35.284Z,99998.97
2023-05-18T02:44:03.477Z,99999.91
2023-05-18T02:46:30.442Z,99997.34
2023-05-18T02:48:57.772Z,99999.16
2023-05-18T02:51:25.228Z,99993.16
2023-05-18T02:53:52.341Z,99996.72
2023-05-18T02:56:19.233Z,99995.00
2023-05-18T02:58:45.970Z,99995.00
2023-05-18T03:01:12.798Z,99994.25
2023-05-18T03:03:42.556Z,99995.38
2023-05-18T03:06:09.949Z,100004.09
2023-05-18T03:08:37.445Z,99999.75
2023-05-18T03:11:04.698Z,99995.47
2023-05-18T03:13:31.465Z,99994.72
2023-05-18T03:15:58.646Z,99996.56
2023-05-18T03:18:25.744Z,99995.78
2023-05-18T03:20:52.812Z,99994.97
2023-05-18T03:23:20.476Z,99988.03
2023-05-18T03:25:47.157Z,99991.59
2023-05-18T03:28:13.835Z,99996.94
2023-05-18T03:30:40.584Z,99994.41
2023-05-18T03:33:07.411Z,99998.84
2023-05-18T03:35:34.318Z,99997.25
2023-05-18T03:38:01.051Z,100005.16
2023-05-18T03:40:27.782Z,100003.47
2023-05-18T03:42:54.510Z,100003.47
2023-05-18T03:45:21.325Z,99999.19
2023-05-18T03:47:48.165Z,100000.13
2023-05-18T03:50:14.991Z,100006.22
2023-05-18T03:52:44.636Z,99998.50
2023-05-18T03:55:12.304Z,100000.13
2023-05-18T03:57:39.467Z,100007.09
2023-05-18T04:00:13.390Z,100005.28
2023-05-18T04:02:40.429Z,100003.53
2023-05-18T04:05:08.678Z,100010.34
2023-05-18T04:07:43.684Z,100007.78
2023-05-18T04:10:12.154Z,100012.06
2023-05-18T04:12:39.269Z,100008.50
2023-05-18T04:15:06.632Z,100016.16
2023-05-18T04:17:34.065Z,100019.59
2023-05-18T04:20:02.111Z,100020.41
2023-05-18T04:22:31.281Z,100029.03
2023-05-18T04:24:58.002Z,100016.56
2023-05-18T04:27:25.101Z,100019.00
2023-05-18T04:29:52.097Z,100022.31
2023-05-18T04:32:19.224Z,100018.69
2023-05-18T04:34:49.618Z,100021.00
2023-05-18T04:37:18.037Z,100021.50
2023-05-18T04:39:44.752Z,100022.84
2023-05-18T04:42:14.068Z,100017.47
2023-05-18T04:44:40.791Z,100021.53
2023-05-18T04:47:08.611Z,100020.38
2023-05-18T04:49:35.603Z,100026.00
2023-05-18T04:52:02.374Z,100025.13
2023-05-18T04:54:32.958Z,100021.72
2023-05-18T04:56:59.805Z,100025.06
2023-05-18T04:59:26.628Z,100022.88
2023-05-18T05:01:53.938Z,100021.59
2023-05-18T05:04:24.042Z,100017.69
2023-05-18T05:06:50.995Z,100025.72
2023-05-18T05:09:18.108Z,100029.78
2023-05-18T05:11:44.864Z,100019.94
2023-05-18T05:14:11.578Z,100022.94
2023-05-18T05:16:39.142Z,100021.69
2023-05-18T05:19:06.204Z,100013.19
2023-05-18T05:21:33.118Z,100015.91
2023-05-18T05:24:01.689Z,100015.22
2023-05-18T05:26:28.467Z,100017.41
2023-05-18T05:28:55.132Z,100009.97
2023-05-18T05:31:21.783Z,100006.94
2023-05-18T05:33:48.477Z,100014.50
2023-05-18T05:36:15.211Z,100010.50
2023-05-18T05:38:42.321Z,100014.47
2023-05-18T05:41:09.140Z,100006.75
2023-05-18T05:43:35.893Z,100006.19
2023-05-18T05:46:02.987Z,100011.09
2023-05-18T05:48:29.638Z,100009.75
2023-05-18T05:50:56.812Z,100013.19
2023-05-18T05:53:23.663Z,100012.72
2023-05-18T05:55:50.517Z,100013.72
2023-05-18T05:58:17.676Z,100010.69
2023-05-18T06:00:46.225Z,100007.81
2023-05-18T06:03:13.052Z,100012.63
2023-05-18T06:05:39.804Z,100007.56
2023-05-18T06:08:06.501Z,100013.50
2023-05-18T06:10:33.202Z,100012.72
2023-05-18T06:13:00.012Z,100007.88
2023-05-18T06:15:27.918Z,100020.06
2023-05-18T06:17:54.951Z,100012.59
2023-05-18T06:20:22.110Z,100014.44
2023-05-18T06:22:48.900Z,100013.59
2023-05-18T06:25:15.895Z,100017.69
2023-05-18T06:27:44.502Z,100006.13
2023-05-18T06:30:11.695Z,100019.44
2023-05-18T06:32:38.708Z,100017.06
2023-05-18T06:35:13.121Z,100013.88
2023-05-18T06:37:40.030Z,100017.91
2023-05-18T06:40:08.620Z,100022.91
2023-05-18T06:42:35.524Z,100022.47
2023-05-18T06:45:03.403Z,100021.91
2023-05-18T06:47:30.200Z,100018.56
2023-05-18T06:49:56.930Z,100023.50
2023-05-18T06:52:25.612Z,100023.34
2023-05-18T06:54:53.685Z,100030.66
2023-05-18T06:57:20.781Z,100030.22
2023-05-18T06:59:53.509Z,100025.88
2023-05-18T07:02:21.320Z,100029.94
2023-05-18T07:04:49.490Z,100027.16
2023-05-18T07:07:17.084Z,100021.19
2023-05-18T07:09:45.602Z,100020.47
2023-05-18T07:12:13.052Z,100015.59
2023-05-18T07:14:39.711Z,100025.25
2023-05-18T07:17:07.142Z,100018.38
2023-05-18T07:19:35.360Z,100022.72
2023-05-18T07:22:02.149Z,100021.09
2023-05-18T07:24:28.821Z,100022.31
2023-05-18T07:26:55.535Z,100024.97
2023-05-18T07:29:22.279Z,100023.03
2023-05-18T07:31:49.041Z,100017.88
2023-05-18T07:34:15.800Z,100018.19
2023-05-18T07:36:48.703Z,100011.63
2023-05-18T07:39:19.448Z,100011.53
2023-05-18T07:41:48.522Z,100010.94
2023-05-18T07:44:15.847Z,100009.34
2023-05-18T07:46:43.409Z,100019.97
2023-05-18T07:49:10.129Z,100010.63
2023-05-18T07:51:37.009Z,100010.00
2023-05-18T07:54:05.243Z,100005.44
2023-05-18T07:56:31.932Z,100000.44
2023-05-18T07:58:58.652Z,100001.19
2023-05-18T08:01:27.761Z,100004.94
2023-05-18T08:03:54.752Z,100006.53
2023-05-18T08:06:21.716Z,100004.78
2023-05-18T08:08:48.595Z,100001.56
2023-05-18T08:11:15.301Z,100004.03
2023-05-18T08:13:42.029Z,100006.63
2023-05-18T08:16:12.237Z,100003.81
2023-05-18T08:18:40.170Z,100007.13
2023-05-18T08:21:10.345Z,100006.47
2023-05-18T08:23:37.243Z,100007.16
2023-05-18T08:26:04.232Z,100002.88
2023-05-18T08:28:31.756Z,99993.09
2023-05-18T08:30:58.682Z,100003.03
2023-05-18T08:33:25.881Z,99988.41
2023-05-18T08:35:52.900Z,99994.00
2023-05-18T08:38:19.585Z,99987.06
2023-05-18T08:40:55.183Z,99983.47
2023-05-18T08:43:25.658Z,99985.25
2023-05-18T08:46:06.488Z,99989.00
2023-05-18T08:48:34.308Z,99975.94
2023-05-18T08:51:03.156Z,99981.66
2023-05-18T08:53:31.237Z,99980.31
2023-05-18T08:55:58.552Z,99978.75
2023-05-18T08:58:34.499Z,99980.72
2023-05-18T09:01:01.909Z,99986.66
2023-05-18T09:03:29.825Z,99987.59
2023-05-18T09:05:59.310Z,99980.31
2023-05-18T09:08:26.359Z,99979.25
2023-05-18T09:10:56.747Z,99982.03
2023-05-18T09:13:23.686Z,99982.13
2023-05-18T09:15:51.503Z,99973.50
2023-05-18T09:18:18.161Z,99969.91
2023-05-18T09:20:45.564Z,99988.03
2023-05-18T09:23:13.135Z,99975.09
2023-05-18T09:25:49.678Z,99976.31
2023-05-18T09:28:39.922Z,99977.06
2023-05-18T09:31:26.797Z,99972.34
2023-05-18T09:33:53.603Z,99972.22
2023-05-18T09:36:26.216Z,99972.09
2023-05-18T09:38:53.292Z,99974.56
2023-05-18T09:41:20.163Z,99979.84
2023-05-18T09:43:50.867Z,99984.31
2023-05-18T09:46:18.308Z,99977.16
2023-05-18T09:48:52.294Z,99981.44
2023-05-18T09:51:19.105Z,99977.78
2023-05-18T09:53:53.239Z,99972.81
2023-05-18T09:56:20.144Z,99972.47
2023-05-18T09:58:47.681Z,99971.13
2023-05-18T10:01:14.447Z,99965.34
2023-05-18T10:03:41.293Z,99965.56
2023-05-18T10:06:09.940Z,99963.09
2023-05-18T10:08:37.792Z,99966.78
2023-05-18T10:11:05.679Z,99962.31
2023-05-18T10:13:34.094Z,99955.06
2023-05-18T10:16:25.897Z,99959.22
2023-05-18T10:18:54.847Z,99957.06
2023-05-18T10:21:24.699Z,99956.28
2023-05-18T10:23:52.826Z,99950.16
2023-05-18T10:26:23.399Z,99954.75
2023-05-18T10:28:52.716Z,99947.66
2023-05-18T10:31:19.795Z,99948.25
2023-05-18T10:33:47.091Z,99951.31
2023-05-18T10:36:15.263Z,99950.44
2023-05-18T10:38:45.261Z,99944.88
2023-05-18T10:41:13.631Z,99950.00
2023-05-18T10:43:42.021Z,99950.75
2023-05-18T10:46:09.653Z,99950.69
2023-05-18T10:48:40.263Z,99948.31
2023-05-18T10:51:08.246Z,99951.34
2023-05-18T10:53:36.588Z,99952.22
2023-05-18T10:56:03.690Z,99946.63
2023-05-18T10:58:32.585Z,99946.81
2023-05-18T11:01:01.901Z,99940.19
2023-05-18T11:03:28.869Z,99940.47
2023-05-18T11:06:08.120Z,99940.22
2023-05-18T11:08:35.481Z,99929.22
2023-05-18T11:11:05.012Z,99931.91
2023-05-18T11:13:32.875Z,99932.19
2023-05-18T11:15:59.522Z,99933.06
2023-05-18T11:18:49.958Z,99932.31
2023-05-18T11:21:36.002Z,99925.22
2023-05-18T11:24:31.358Z,99921.03
2023-05-18T11:27:07.540Z,99920.38
2023-05-18T11:29:48.413Z,99927.41
2023-05-18T11:32:31.371Z,99922.03
2023-05-18T11:34:59.070Z,99921.44
2023-05-18T11:37:41.385Z,99931.22
2023-05-18T11:40:13.621Z,99920.09
2023-05-18T11:42:40.776Z,99918.78
2023-05-18T11:45:09.183Z,99924.31
2023-05-18T11:47:42.413Z,99914.22
2023-05-18T11:50:14.822Z,99919.41
2023-05-18T11:52:51.816Z,99913.94
2023-05-18T11:55:20.426Z,99909.63
2023-05-18T11:57:53.190Z,99906.91
2023-05-18T12:00:20.555Z,99916.09
2023-05-18T12:02:48.938Z,99905.81
2023-05-18T12:05:16.287Z,99895.63
2023-05-18T12:07:43.087Z,99907.81
2023-05-18T12:10:17.688Z,99908.59
2023-05-18T12:12:49.216Z,99915.19
2023-05-18T12:15:17.406Z,99901.75
2023-05-18T12:17:46.705Z,99901.13
2023-05-18T12:20:15.672Z,99901.41
2023-05-18T12:22:44.578Z,99901.25
2023-05-18T12:25:11.713Z,99891.94
2023-05-18T12:27:42.832Z,99884.47
2023-05-18T12:30:17.830Z,99888.09
2023-05-18T12:32:49.224Z,99891.97
2023-05-18T12:35:15.954Z,99881.69
2023-05-18T12:37:45.186Z,99887.44
2023-05-18T12:40:19.481Z,99883.91
2023-05-18T12:42:56.704Z,99877.22
2023-05-18T12:45:26.120Z,99878.00
2023-05-18T12:47:55.072Z,99876.56
2023-05-18T12:50:23.623Z,99875.56
2023-05-18T12:52:51.099Z,99877.69
2023-05-18T12:55:21.885Z,99880.22
2023-05-18T12:58:03.385Z,99878.22
2023-05-18T13:00:34.382Z,99871.97
2023-05-18T13:03:15.627Z,99884.09
2023-05-18T13:05:47.792Z,99881.34
2023-05-18T13:08:23.990Z,99877.94
2023-05-18T13:11:01.178Z,99866.97
2023-05-18T13:13:35.440Z,99886.09
2023-05-18T13:16:02.116Z,99876.38
2023-05-18T13:18:28.924Z,99872.41
2023-05-18T13:20:58.186Z,99875.38
2023-05-18T13:23:29.935Z,99867.59
2023-05-18T13:25:58.914Z,99860.31
2023-05-18T13:28:27.185Z,99858.44
2023-05-18T13:30:53.904Z,99863.78
2023-05-18T13:33:21.511Z,99867.31
2023-05-18T13:35:49.864Z,99869.44
2023-05-18T13:38:16.955Z,99848.72
2023-05-18T13:40:43.691Z,99846.38
2023-05-18T13:43:12.870Z,99851.09
2023-05-18T13:45:41.126Z,99843.56
2023-05-18T13:48:10.721Z,99845.75
2023-05-18T13:50:38.138Z,99834.03
2023-05-18T13:53:04.863Z,99836.31
2023-05-18T13:55:31.827Z,99840.84
2023-05-18T13:57:58.815Z,99838.56
2023-05-18T14:00:26.313Z,99832.50
2023-05-18T14:02:56.653Z,99826.22
2023-05-18T14:05:23.650Z,99832.41
2023-05-18T14:07:52.492Z,99841.50
2023-05-18T14:10:19.627Z,99838.53
2023-05-18T14:12:46.734Z,99835.94
2023-05-18T14:15:14.272Z,99822.31
2023-05-18T14:17:44.398Z,99826.53
2023-05-18T14:20:12.498Z,99815.63
2023-05-18T14:22:39.608Z,99812.22
2023-05-18T14:25:06.617Z,99816.59
2023-05-18T14:27:33.404Z,99812.53
2023-05-18T14:30:00.196Z,99805.88
2023-05-18T14:32:26.996Z,99819.72
2023-05-18T14:34:55.891Z,99811.47
2023-05-18T14:37:22.725Z,99810.16
2023-05-18T14:39:49.469Z,99816.41
2023-05-18T14:42:16.243Z,99822.22
2023-05-18T14:44:43.025Z,99826.25
2023-05-18T14:47:10.704Z,99818.69
2023-05-18T14:49:38.032Z,99809.72
2023-05-18T14:52:05.325Z,99809.69
2023-05-18T14:54:32.001Z,99805.66
2023-05-18T14:56:59.717Z,99808.88
2023-05-18T14:59:26.422Z,99812.09
2023-05-18T15:01:53.271Z,99815.16
2023-05-18T15:04:21.882Z,99813.88
2023-05-18T15:06:49.942Z,99814.13
2023-05-18T15:09:17.296Z,99814.09
2023-05-18T15:11:44.170Z,99813.53
2023-05-18T15:14:10.896Z,99803.41
2023-05-18T15:16:38.943Z,99796.19
2023-05-18T15:19:05.980Z,99789.00
2023-05-18T15:21:32.827Z,99805.09
2023-05-18T15:23:59.476Z,99802.25
2023-05-18T15:26:26.259Z,99812.53
2023-05-18T15:28:52.968Z,99808.88
2023-05-18T15:31:19.809Z,99809.28
2023-05-18T15:33:46.977Z,99809.53
2023-05-18T15:36:13.766Z,99812.78
2023-05-18T15:38:41.142Z,99804.38
2023-05-18T15:41:08.096Z,99809.97
2023-05-18T15:43:36.630Z,99804.47
2023-05-18T15:46:03.525Z,99801.78
2023-05-18T15:48:30.350Z,99801.66
2023-05-18T15:50:57.161Z,99791.53
2023-05-18T15:53:23.941Z,99801.38
2023-05-18T15:55:50.951Z,99800.69
2023-05-18T15:58:17.633Z,99792.94
2023-05-18T16:00:44.434Z,99797.69
2023-05-18T16:03:11.287Z,99794.47
2023-05-18T16:05:38.420Z,99796.25
2023-05-18T16:08:05.752Z,99790.09
2023-05-18T16:10:32.588Z,99785.84
2023-05-18T16:13:05.708Z,99784.16
2023-05-18T16:15:34.342Z,99788.81
2023-05-18T16:18:01.863Z,99780.38
2023-05-18T16:20:28.788Z,99783.69
2023-05-18T16:22:56.116Z,99784.69
2023-05-18T16:25:23.564Z,99780.75
2023-05-18T16:27:50.763Z,99790.59
2023-05-18T16:30:17.641Z,99781.91
2023-05-18T16:32:44.570Z,99786.81
2023-05-18T16:35:11.608Z,99785.84
2023-05-18T16:37:38.986Z,99779.25
2023-05-18T16:40:06.808Z,99782.47
2023-05-18T16:42:34.042Z,99782.88
2023-05-18T16:45:00.873Z,99779.09
2023-05-18T16:47:27.678Z,99782.19
2023-05-18T16:49:54.587Z,99776.81
2023-05-18T16:52:21.616Z,99776.81
2023-05-18T16:54:48.496Z,99786.41
2023-05-18T16:57:15.714Z,99788.47
2023-05-18T16:59:42.630Z,99787.75
2023-05-18T17:02:16.242Z,99786.59
2023-05-18T17:04:44.891Z,99788.03
2023-05-18T17:07:12.484Z,99789.72
2023-05-18T17:09:41.686Z,99793.91
2023-05-18T17:12:12.224Z,99792.09
2023-05-18T17:14:38.950Z,99788.25
2023-05-18T17:17:06.776Z,99790.81
2023-05-18T17:19:35.255Z,99793.91
2023-05-18T17:22:03.442Z,99793.41
2023-05-18T17:24:30.450Z,99788.97
2023-05-18T17:26:57.227Z,99792.09
2023-05-18T17:29:23.939Z,99789.94
2023-05-18T17:31:50.738Z,99791.13
2023-05-18T17:34:17.528Z,99797.31
2023-05-18T17:36:45.159Z,99800.91
2023-05-18T17:39:12.572Z,99806.63
2023-05-18T17:41:39.323Z,99808.47
2023-05-18T17:44:06.318Z,99797.66
2023-05-18T17:46:33.320Z,99798.31
2023-05-18T17:49:02.113Z,99796.88
2023-05-18T17:51:28.937Z,99802.53
2023-05-18T17:53:56.652Z,99807.13
2023-05-18T17:56:24.897Z,99805.50
2023-05-18T17:58:53.284Z,99805.34
2023-05-18T18:01:20.326Z,99810.13
2023-05-18T18:03:48.318Z,99802.34
2023-05-18T18:06:15.337Z,99811.31
2023-05-18T18:08:42.986Z,99805.97
2023-05-18T18:11:09.769Z,99802.00
2023-05-18T18:13:36.555Z,99804.28
2023-05-18T18:16:03.422Z,99803.81
2023-05-18T18:18:30.448Z,99805.25
2023-05-18T18:20:57.213Z,99800.88
2023-05-18T18:23:23.911Z,99803.22
2023-05-18T18:25:51.047Z,99806.78
2023-05-18T18:28:20.942Z,99809.09
2023-05-18T18:30:47.703Z,99804.28
2023-05-18T18:33:14.590Z,99800.06
2023-05-18T18:35:41.317Z,99817.34
2023-05-18T18:38:09.013Z,99807.19
2023-05-18T18:40:35.880Z,99805.53
2023-05-18T18:43:02.609Z,99807.84
2023-05-18T18:45:30.936Z,99823.25
2023-05-18T18:47:58.827Z,99817.31
2023-05-18T18:50:26.572Z,99822.28
2023-05-18T18:52:53.402Z,99813.22
2023-05-18T18:55:20.590Z,99819.97
2023-05-18T18:57:47.344Z,99829.94
2023-05-18T19:00:32.011Z,99833.78
2023-05-18T19:02:58.756Z,99838.41
2023-05-18T19:05:25.961Z,99832.09
2023-05-18T19:07:55.803Z,99831.38
2023-05-18T19:10:23.266Z,99833.31
2023-05-18T19:12:49.992Z,99835.63
2023-05-18T19:15:16.859Z,99840.44
2023-05-18T19:17:46.013Z,99834.41
2023-05-18T19:20:13.024Z,99844.91
2023-05-18T19:22:40.367Z,99841.31
2023-05-18T19:25:07.271Z,99846.38
2023-05-18T19:27:33.931Z,99849.63
2023-05-18T19:30:02.831Z,99848.91
2023-05-18T19:32:29.894Z,99850.81
2023-05-18T19:34:56.797Z,99854.44
2023-05-18T19:37:23.497Z,99852.38
2023-05-18T19:39:50.272Z,99858.91
2023-05-18T19:42:17.052Z,99855.88
2023-05-18T19:44:43.707Z,99842.78
2023-05-18T19:47:11.185Z,99855.13
2023-05-18T19:49:37.891Z,99858.75
2023-05-18T19:52:08.320Z,99855.59
2023-05-18T19:54:40.788Z,99861.38
2023-05-18T19:57:07.619Z,99862.28
2023-05-18T19:59:34.359Z,99857.22
2023-05-18T20:02:03.795Z,99854.03
2023-05-18T20:04:30.389Z,99864.13
2023-05-18T20:06:57.792Z,99863.25
2023-05-18T20:09:24.461Z,99860.41
2023-05-18T20:11:51.305Z,99861.56
2023-05-18T20:14:18.086Z,99862.88
2023-05-18T20:16:44.828Z,99865.88
2023-05-18T20:19:13.860Z,99873.34
2023-05-18T20:21:41.334Z,99878.25
2023-05-18T20:24:08.074Z,99870.94
2023-05-18T20:26:34.754Z,99870.44
2023-05-18T20:29:01.450Z,99865.38
2023-05-18T20:31:28.135Z,99875.13
2023-05-18T20:33:57.591Z,99874.28
2023-05-18T20:36:25.340Z,99877.59
2023-05-18T20:38:53.356Z,99882.19
2023-05-18T20:41:22.847Z,99871.75
2023-05-18T20:43:51.188Z,99879.66
2023-05-18T20:46:20.613Z,99874.78
2023-05-18T20:48:47.407Z,99877.75
2023-05-18T20:51:18.812Z,99879.66
2023-05-18T20:53:47.072Z,99879.03
2023-05-18T20:56:15.741Z,99876.09
2023-05-18T20:58:48.742Z,99876.50
2023-05-18T21:01:16.855Z,99880.03
2023-05-18T21:03:45.404Z,99871.84
2023-05-18T21:06:13.219Z,99871.22
2023-05-18T21:08:40.637Z,99867.91
2023-05-18T21:11:07.475Z,99866.22
2023-05-18T21:13:36.787Z,99865.50
2023-05-18T21:16:06.705Z,99865.91
2023-05-18T21:18:37.446Z,99873.75
2023-05-18T21:21:04.586Z,99869.09
2023-05-18T21:23:31.458Z,99872.06
2023-05-18T21:25:58.293Z,99873.97
2023-05-18T21:28:25.213Z,99873.13
2023-05-18T21:30:52.378Z,99870.38
2023-05-18T21:33:19.428Z,99871.66
2023-05-18T21:35:46.332Z,99875.53
2023-05-18T21:38:13.126Z,99876.28
2023-05-18T21:40:43.566Z,99876.28
2023-05-18T21:43:10.830Z,99879.88
2023-05-18T21:45:38.580Z,99879.38
2023-05-18T21:48:05.868Z,99880.66
2023-05-18T21:50:34.880Z,99886.91
2023-05-18T21:53:03.219Z,99884.69
2023-05-18T21:55:33.451Z,99888.41
2023-05-18T21:58:00.271Z,99882.44
2023-05-18T22:00:27.248Z,99881.50
2023-05-18T22:02:54.230Z,99884.78
2023-05-18T22:05:21.122Z,99889.88
2023-05-18T22:07:48.563Z,99883.09
2023-05-18T22:10:15.530Z,99879.19
2023-05-18T22:12:43.622Z,99879.28
2023-05-18T22:15:10.879Z,99882.41
2023-05-18T22:17:38.900Z,99879.00
2023-05-18T22:20:09.739Z,99874.25
2023-05-18T22:22:36.485Z,99883.25
2023-05-18T22:25:03.181Z,99876.16
2023-05-18T22:27:30.209Z,99881.97
2023-05-18T22:29:57.354Z,99880.06
2023-05-18T22:32:24.619Z,99874.53
2023-05-18T22:34:52.076Z,99877.09
2023-05-18T22:37:18.970Z,99876.66
2023-05-18T22:39:45.607Z,99872.22
2023-05-18T22:42:12.418Z,99862.47
2023-05-18T22:44:39.093Z,99868.94
2023-05-18T22:47:06.156Z,99872.31
2023-05-18T22:49:32.783Z,99871.16
2023-05-18T22:51:59.968Z,99873.06
2023-05-18T22:54:26.644Z,99871.44
2023-05-18T22:56:53.350Z,99869.88
2023-05-18T22:59:20.489Z,99868.59
2023-05-18T23:01:47.846Z,99864.91
2023-05-18T23:04:19.680Z,99857.91
2023-05-18T23:06:48.849Z,99860.47
2023-05-18T23:09:16.000Z,99867.13
2023-05-18T23:11:46.185Z,99858.41
2023-05-18T23:14:13.000Z,99854.91
2023-05-18T23:16:43.344Z,99858.59
2023-05-18T23:19:12.578Z,99855.66
2023-05-18T23:21:40.449Z,99861.13
2023-05-18T23:24:08.036Z,99864.28
2023-05-18T23:26:34.704Z,99864.59
2023-05-18T23:29:01.604Z,99863.88
2023-05-18T23:31:28.951Z,99860.66
2023-05-18T23:33:56.119Z,99857.47
2023-05-18T23:36:27.504Z,99859.38
2023-05-18T23:39:00.868Z,99852.59
2023-05-18T23:41:29.581Z,99857.25
2023-05-18T23:43:57.828Z,99855.72
2023-05-18T23:46:25.424Z,99857.66
2023-05-18T23:48:52.554Z,99851.91
2023-05-18T23:51:23.229Z,99855.50
2023-05-18T23:53:51.985Z,99851.44
2023-05-18T23:56:18.901Z,99854.19
2023-05-18T23:58:47.145Z,99853.09
